sensor_id;sensor_type;location;lat;lon;timestamp;P1;durP1;ratioP1;P2;durP2;ratioP2
82032;SDS011;71595;52.180;4.512;2023-08-20T00:02:23;8.48;;;2.25;;
82032;SDS011;71595;52.180;4.512;2023-08-20T00:04:50;4.72;;;1.70;;
82032;SDS011;71595;52.180;4.512;2023-08-20T00:07:16;7.32;;;2.65;;
82032;SDS011;71595;52.180;4.512;2023-08-20T00:09:43;6.43;;;2.10;;
82032;SDS011;71595;52.180;4.512;2023-08-20T00:12:09;7.65;;;2.63;;
82032;SDS011;71595;52.180;4.512;2023-08-20T00:17:20;7.95;;;2.30;;
82032;SDS011;71595;52.180;4.512;2023-08-20T00:19:46;9.40;;;2.00;;
82032;SDS011;71595;52.180;4.512;2023-08-20T00:22:11;3.78;;;1.60;;
82032;SDS011;71595;52.180;4.512;2023-08-20T00:24:37;6.95;;;2.25;;
82032;SDS011;71595;52.180;4.512;2023-08-20T00:27:03;6.05;;;2.20;;
82032;SDS011;71595;52.180;4.512;2023-08-20T00:29:28;5.90;;;2.13;;
82032;SDS011;71595;52.180;4.512;2023-08-20T00:31:53;8.48;;;1.90;;
82032;SDS011;71595;52.180;4.512;2023-08-20T00:34:19;7.00;;;1.90;;
82032;SDS011;71595;52.180;4.512;2023-08-20T00:36:44;7.60;;;2.00;;
82032;SDS011;71595;52.180;4.512;2023-08-20T00:39:11;5.38;;;2.03;;
82032;SDS011;71595;52.180;4.512;2023-08-20T00:41:36;5.38;;;1.58;;
82032;SDS011;71595;52.180;4.512;2023-08-20T00:44:01;9.27;;;2.30;;
82032;SDS011;71595;52.180;4.512;2023-08-20T00:46:28;5.00;;;1.83;;
82032;SDS011;71595;52.180;4.512;2023-08-20T00:48:54;7.03;;;2.13;;
82032;SDS011;71595;52.180;4.512;2023-08-20T00:51:20;4.80;;;1.92;;
82032;SDS011;71595;52.180;4.512;2023-08-20T00:53:46;5.30;;;1.80;;
82032;SDS011;71595;52.180;4.512;2023-08-20T00:56:11;4.93;;;1.70;;
82032;SDS011;71595;52.180;4.512;2023-08-20T00:58:37;8.63;;;1.95;;
82032;SDS011;71595;52.180;4.512;2023-08-20T01:01:02;7.15;;;1.98;;
82032;SDS011;71595;52.180;4.512;2023-08-20T01:03:28;6.60;;;2.00;;
82032;SDS011;71595;52.180;4.512;2023-08-20T01:05:55;6.15;;;1.83;;
82032;SDS011;71595;52.180;4.512;2023-08-20T01:08:37;6.95;;;1.92;;
82032;SDS011;71595;52.180;4.512;2023-08-20T01:11:12;6.55;;;1.90;;
82032;SDS011;71595;52.180;4.512;2023-08-20T01:13:43;8.13;;;1.98;;
82032;SDS011;71595;52.180;4.512;2023-08-20T01:16:08;9.68;;;2.03;;
82032;SDS011;71595;52.180;4.512;2023-08-20T01:18:34;8.73;;;2.33;;
82032;SDS011;71595;52.180;4.512;2023-08-20T01:21:01;6.15;;;1.90;;
82032;SDS011;71595;52.180;4.512;2023-08-20T01:28:36;3.90;;;2.05;;
82032;SDS011;71595;52.180;4.512;2023-08-20T01:31:04;6.40;;;1.80;;
82032;SDS011;71595;52.180;4.512;2023-08-20T01:33:30;6.97;;;1.90;;
82032;SDS011;71595;52.180;4.512;2023-08-20T01:35:56;4.88;;;1.90;;
82032;SDS011;71595;52.180;4.512;2023-08-20T01:38:22;7.22;;;1.90;;
82032;SDS011;71595;52.180;4.512;2023-08-20T01:40:47;8.18;;;2.00;;
82032;SDS011;71595;52.180;4.512;2023-08-20T01:43:13;7.22;;;2.10;;
82032;SDS011;71595;52.180;4.512;2023-08-20T01:45:39;5.30;;;2.00;;
82032;SDS011;71595;52.180;4.512;2023-08-20T01:48:04;4.32;;;1.80;;
82032;SDS011;71595;52.180;4.512;2023-08-20T01:50:30;5.57;;;1.83;;
82032;SDS011;71595;52.180;4.512;2023-08-20T01:52:56;6.47;;;2.30;;
82032;SDS011;71595;52.180;4.512;2023-08-20T01:55:21;10.88;;;2.90;;
82032;SDS011;71595;52.180;4.512;2023-08-20T01:57:46;6.88;;;2.10;;
82032;SDS011;71595;52.180;4.512;2023-08-20T02:00:12;6.68;;;1.90;;
82032;SDS011;71595;52.180;4.512;2023-08-20T02:02:38;6.03;;;2.10;;
82032;SDS011;71595;52.180;4.512;2023-08-20T02:05:03;6.68;;;2.30;;
82032;SDS011;71595;52.180;4.512;2023-08-20T02:07:29;9.65;;;2.70;;
82032;SDS011;71595;52.180;4.512;2023-08-20T02:09:54;5.72;;;1.88;;
82032;SDS011;71595;52.180;4.512;2023-08-20T02:12:19;6.18;;;2.10;;
82032;SDS011;71595;52.180;4.512;2023-08-20T02:14:45;5.93;;;1.80;;
82032;SDS011;71595;52.180;4.512;2023-08-20T02:17:10;6.07;;;1.83;;
82032;SDS011;71595;52.180;4.512;2023-08-20T02:19:37;6.47;;;2.05;;
82032;SDS011;71595;52.180;4.512;2023-08-20T02:22:02;9.68;;;2.30;;
82032;SDS011;71595;52.180;4.512;2023-08-20T02:24:28;6.45;;;2.15;;
82032;SDS011;71595;52.180;4.512;2023-08-20T02:26:53;6.57;;;1.85;;
82032;SDS011;71595;52.180;4.512;2023-08-20T02:29:18;12.07;;;2.42;;
82032;SDS011;71595;52.180;4.512;2023-08-20T02:31:44;4.53;;;1.80;;
82032;SDS011;71595;52.180;4.512;2023-08-20T02:34:09;9.93;;;3.42;;
82032;SDS011;71595;52.180;4.512;2023-08-20T02:36:35;8.35;;;2.10;;
82032;SDS011;71595;52.180;4.512;2023-08-20T02:39:00;5.28;;;1.98;;
82032;SDS011;71595;52.180;4.512;2023-08-20T02:41:25;9.02;;;2.20;;
82032;SDS011;71595;52.180;4.512;2023-08-20T02:43:51;6.53;;;1.90;;
82032;SDS011;71595;52.180;4.512;2023-08-20T02:46:16;5.20;;;1.70;;
82032;SDS011;71595;52.180;4.512;2023-08-20T02:48:41;4.50;;;1.70;;
82032;SDS011;71595;52.180;4.512;2023-08-20T02:51:07;7.97;;;1.88;;
82032;SDS011;71595;52.180;4.512;2023-08-20T02:53:32;5.50;;;2.15;;
82032;SDS011;71595;52.180;4.512;2023-08-20T02:55:57;7.05;;;2.10;;
82032;SDS011;71595;52.180;4.512;2023-08-20T02:58:23;7.80;;;1.90;;
82032;SDS011;71595;52.180;4.512;2023-08-20T03:00:48;5.40;;;1.75;;
82032;SDS011;71595;52.180;4.512;2023-08-20T03:03:14;7.18;;;2.47;;
82032;SDS011;71595;52.180;4.512;2023-08-20T03:05:39;7.75;;;2.13;;
82032;SDS011;71595;52.180;4.512;2023-08-20T03:08:05;10.23;;;1.83;;
82032;SDS011;71595;52.180;4.512;2023-08-20T03:10:30;5.72;;;1.85;;
82032;SDS011;71595;52.180;4.512;2023-08-20T03:12:57;6.68;;;2.08;;
82032;SDS011;71595;52.180;4.512;2023-08-20T03:15:23;6.80;;;1.98;;
82032;SDS011;71595;52.180;4.512;2023-08-20T03:17:48;7.38;;;2.05;;
82032;SDS011;71595;52.180;4.512;2023-08-20T03:20:14;7.90;;;2.65;;
82032;SDS011;71595;52.180;4.512;2023-08-20T03:22:39;8.20;;;2.08;;
82032;SDS011;71595;52.180;4.512;2023-08-20T03:25:05;6.43;;;2.05;;
82032;SDS011;71595;52.180;4.512;2023-08-20T03:27:31;7.13;;;3.00;;
82032;SDS011;71595;52.180;4.512;2023-08-20T03:29:56;8.75;;;2.50;;
82032;SDS011;71595;52.180;4.512;2023-08-20T03:32:21;8.57;;;2.10;;
82032;SDS011;71595;52.180;4.512;2023-08-20T03:34:47;8.30;;;1.73;;
82032;SDS011;71595;52.180;4.512;2023-08-20T03:37:12;6.20;;;2.00;;
82032;SDS011;71595;52.180;4.512;2023-08-20T03:39:38;5.70;;;1.80;;
82032;SDS011;71595;52.180;4.512;2023-08-20T03:42:03;9.82;;;2.50;;
82032;SDS011;71595;52.180;4.512;2023-08-20T03:44:30;4.95;;;1.80;;
82032;SDS011;71595;52.180;4.512;2023-08-20T03:46:56;7.43;;;2.10;;
82032;SDS011;71595;52.180;4.512;2023-08-20T03:49:21;5.10;;;1.98;;
82032;SDS011;71595;52.180;4.512;2023-08-20T03:51:47;6.18;;;2.00;;
82032;SDS011;71595;52.180;4.512;2023-08-20T03:54:13;7.70;;;2.13;;
82032;SDS011;71595;52.180;4.512;2023-08-20T03:56:38;9.27;;;3.22;;
82032;SDS011;71595;52.180;4.512;2023-08-20T03:59:03;6.60;;;2.30;;
82032;SDS011;71595;52.180;4.512;2023-08-20T04:01:29;11.38;;;2.10;;
82032;SDS011;71595;52.180;4.512;2023-08-20T04:03:54;10.55;;;2.38;;
82032;SDS011;71595;52.180;4.512;2023-08-20T04:06:20;8.32;;;2.17;;
82032;SDS011;71595;52.180;4.512;2023-08-20T04:08:45;5.35;;;1.90;;
82032;SDS011;71595;52.180;4.512;2023-08-20T04:11:10;6.05;;;1.88;;
82032;SDS011;71595;52.180;4.512;2023-08-20T04:13:36;4.22;;;2.15;;
82032;SDS011;71595;52.180;4.512;2023-08-20T04:16:02;6.70;;;2.33;;
82032;SDS011;71595;52.180;4.512;2023-08-20T04:18:27;6.93;;;2.00;;
82032;SDS011;71595;52.180;4.512;2023-08-20T04:20:53;8.30;;;2.50;;
82032;SDS011;71595;52.180;4.512;2023-08-20T04:23:19;6.47;;;2.17;;
82032;SDS011;71595;52.180;4.512;2023-08-20T04:25:45;6.68;;;2.13;;
82032;SDS011;71595;52.180;4.512;2023-08-20T04:28:11;6.78;;;1.88;;
82032;SDS011;71595;52.180;4.512;2023-08-20T04:30:37;6.45;;;1.77;;
82032;SDS011;71595;52.180;4.512;2023-08-20T04:33:03;6.75;;;2.10;;
82032;SDS011;71595;52.180;4.512;2023-08-20T04:35:28;10.63;;;2.33;;
82032;SDS011;71595;52.180;4.512;2023-08-20T04:37:54;6.97;;;1.92;;
82032;SDS011;71595;52.180;4.512;2023-08-20T04:40:19;6.75;;;2.17;;
82032;SDS011;71595;52.180;4.512;2023-08-20T04:42:45;4.68;;;1.80;;
82032;SDS011;71595;52.180;4.512;2023-08-20T04:45:10;10.52;;;2.20;;
82032;SDS011;71595;52.180;4.512;2023-08-20T04:47:36;5.25;;;1.92;;
82032;SDS011;71595;52.180;4.512;2023-08-20T04:50:02;7.28;;;1.90;;
82032;SDS011;71595;52.180;4.512;2023-08-20T04:52:27;7.10;;;2.58;;
82032;SDS011;71595;52.180;4.512;2023-08-20T04:54:53;4.55;;;1.83;;
82032;SDS011;71595;52.180;4.512;2023-08-20T04:57:18;8.50;;;2.88;;
82032;SDS011;71595;52.180;4.512;2023-08-20T04:59:44;5.65;;;1.75;;
82032;SDS011;71595;52.180;4.512;2023-08-20T05:02:13;6.78;;;1.90;;
82032;SDS011;71595;52.180;4.512;2023-08-20T05:04:38;5.90;;;1.80;;
82032;SDS011;71595;52.180;4.512;2023-08-20T05:07:04;4.22;;;1.75;;
82032;SDS011;71595;52.180;4.512;2023-08-20T05:09:30;5.30;;;1.95;;
82032;SDS011;71595;52.180;4.512;2023-08-20T05:11:55;7.53;;;2.10;;
82032;SDS011;71595;52.180;4.512;2023-08-20T05:14:21;12.90;;;2.83;;
82032;SDS011;71595;52.180;4.512;2023-08-20T05:16:46;6.90;;;2.05;;
82032;SDS011;71595;52.180;4.512;2023-08-20T05:19:12;7.75;;;2.80;;
82032;SDS011;71595;52.180;4.512;2023-08-20T05:21:37;5.82;;;2.00;;
82032;SDS011;71595;52.180;4.512;2023-08-20T05:24:03;8.20;;;2.20;;
82032;SDS011;71595;52.180;4.512;2023-08-20T05:26:28;5.72;;;2.17;;
82032;SDS011;71595;52.180;4.512;2023-08-20T05:28:54;5.38;;;2.00;;
82032;SDS011;71595;52.180;4.512;2023-08-20T05:31:19;5.85;;;2.30;;
82032;SDS011;71595;52.180;4.512;2023-08-20T05:33:45;4.57;;;2.13;;
82032;SDS011;71595;52.180;4.512;2023-08-20T05:36:10;5.90;;;2.22;;
82032;SDS011;71595;52.180;4.512;2023-08-20T05:38:35;8.77;;;2.28;;
82032;SDS011;71595;52.180;4.512;2023-08-20T05:41:01;9.52;;;2.15;;
82032;SDS011;71595;52.180;4.512;2023-08-20T05:43:26;9.80;;;2.47;;
82032;SDS011;71595;52.180;4.512;2023-08-20T05:45:51;4.03;;;1.80;;
82032;SDS011;71595;52.180;4.512;2023-08-20T05:48:17;8.77;;;2.20;;
82032;SDS011;71595;52.180;4.512;2023-08-20T05:50:42;6.43;;;2.30;;
82032;SDS011;71595;52.180;4.512;2023-08-20T05:53:08;11.65;;;2.65;;
82032;SDS011;71595;52.180;4.512;2023-08-20T05:55:33;8.32;;;2.72;;
82032;SDS011;71595;52.180;4.512;2023-08-20T05:57:59;7.18;;;3.03;;
82032;SDS011;71595;52.180;4.512;2023-08-20T06:00:24;11.60;;;2.78;;
82032;SDS011;71595;52.180;4.512;2023-08-20T06:02:49;7.68;;;3.38;;
82032;SDS011;71595;52.180;4.512;2023-08-20T06:05:15;8.15;;;2.30;;
82032;SDS011;71595;52.180;4.512;2023-08-20T06:07:40;11.23;;;2.40;;
82032;SDS011;71595;52.180;4.512;2023-08-20T06:10:06;9.73;;;2.80;;
82032;SDS011;71595;52.180;4.512;2023-08-20T06:12:33;8.25;;;2.22;;
82032;SDS011;71595;52.180;4.512;2023-08-20T06:14:59;7.43;;;2.92;;
82032;SDS011;71595;52.180;4.512;2023-08-20T06:17:24;8.75;;;2.13;;
82032;SDS011;71595;52.180;4.512;2023-08-20T06:19:49;7.40;;;2.15;;
82032;SDS011;71595;52.180;4.512;2023-08-20T06:22:15;9.63;;;2.10;;
82032;SDS011;71595;52.180;4.512;2023-08-20T06:24:40;9.10;;;2.10;;
82032;SDS011;71595;52.180;4.512;2023-08-20T06:27:05;6.97;;;2.30;;
82032;SDS011;71595;52.180;4.512;2023-08-20T06:29:31;9.02;;;1.80;;
82032;SDS011;71595;52.180;4.512;2023-08-20T06:31:56;7.85;;;1.73;;
82032;SDS011;71595;52.180;4.512;2023-08-20T06:34:22;11.27;;;2.70;;
82032;SDS011;71595;52.180;4.512;2023-08-20T06:36:47;7.43;;;1.63;;
82032;SDS011;71595;52.180;4.512;2023-08-20T06:39:14;7.15;;;1.80;;
82032;SDS011;71595;52.180;4.512;2023-08-20T06:41:40;9.90;;;1.90;;
82032;SDS011;71595;52.180;4.512;2023-08-20T06:44:06;8.18;;;2.25;;
82032;SDS011;71595;52.180;4.512;2023-08-20T06:46:31;9.27;;;2.30;;
82032;SDS011;71595;52.180;4.512;2023-08-20T06:48:57;7.43;;;2.60;;
82032;SDS011;71595;52.180;4.512;2023-08-20T06:51:22;7.30;;;2.00;;
82032;SDS011;71595;52.180;4.512;2023-08-20T06:53:48;8.18;;;2.17;;
82032;SDS011;71595;52.180;4.512;2023-08-20T06:56:14;6.13;;;1.70;;
82032;SDS011;71595;52.180;4.512;2023-08-20T06:58:40;6.43;;;1.67;;
82032;SDS011;71595;52.180;4.512;2023-08-20T07:01:07;7.57;;;1.88;;
82032;SDS011;71595;52.180;4.512;2023-08-20T07:03:34;8.80;;;1.80;;
82032;SDS011;71595;52.180;4.512;2023-08-20T07:06:03;7.90;;;1.88;;
82032;SDS011;71595;52.180;4.512;2023-08-20T07:08:28;7.95;;;1.75;;
82032;SDS011;71595;52.180;4.512;2023-08-20T07:10:53;5.90;;;1.42;;
82032;SDS011;71595;52.180;4.512;2023-08-20T07:13:19;9.05;;;1.55;;
82032;SDS011;71595;52.180;4.512;2023-08-20T07:15:44;7.50;;;1.80;;
82032;SDS011;71595;52.180;4.512;2023-08-20T07:18:10;8.82;;;1.98;;
82032;SDS011;71595;52.180;4.512;2023-08-20T07:20:38;10.27;;;1.80;;
82032;SDS011;71595;52.180;4.512;2023-08-20T07:23:04;6.68;;;1.90;;
82032;SDS011;71595;52.180;4.512;2023-08-20T07:25:29;7.38;;;1.60;;
82032;SDS011;71595;52.180;4.512;2023-08-20T07:27:54;6.50;;;1.45;;
82032;SDS011;71595;52.180;4.512;2023-08-20T07:30:24;7.30;;;1.90;;
82032;SDS011;71595;52.180;4.512;2023-08-20T07:32:50;7.22;;;1.95;;
82032;SDS011;71595;52.180;4.512;2023-08-20T07:35:15;7.63;;;1.92;;
82032;SDS011;71595;52.180;4.512;2023-08-20T07:37:40;7.80;;;1.95;;
82032;SDS011;71595;52.180;4.512;2023-08-20T07:40:06;5.47;;;1.88;;
82032;SDS011;71595;52.180;4.512;2023-08-20T07:42:32;7.00;;;1.67;;
82032;SDS011;71595;52.180;4.512;2023-08-20T07:44:57;6.53;;;1.95;;
82032;SDS011;71595;52.180;4.512;2023-08-20T07:47:22;5.25;;;1.60;;
82032;SDS011;71595;52.180;4.512;2023-08-20T07:49:48;7.40;;;2.03;;
82032;SDS011;71595;52.180;4.512;2023-08-20T07:52:13;6.47;;;1.77;;
82032;SDS011;71595;52.180;4.512;2023-08-20T07:54:39;6.47;;;1.80;;
82032;SDS011;71595;52.180;4.512;2023-08-20T07:57:04;8.57;;;2.35;;
82032;SDS011;71595;52.180;4.512;2023-08-20T07:59:29;7.03;;;1.83;;
82032;SDS011;71595;52.180;4.512;2023-08-20T08:01:55;6.65;;;1.70;;
82032;SDS011;71595;52.180;4.512;2023-08-20T08:04:20;4.78;;;1.73;;
82032;SDS011;71595;52.180;4.512;2023-08-20T08:06:46;5.82;;;1.92;;
82032;SDS011;71595;52.180;4.512;2023-08-20T08:09:18;8.18;;;1.75;;
82032;SDS011;71595;52.180;4.512;2023-08-20T08:11:51;7.50;;;1.58;;
82032;SDS011;71595;52.180;4.512;2023-08-20T08:14:17;6.63;;;1.48;;
82032;SDS011;71595;52.180;4.512;2023-08-20T08:16:42;6.53;;;1.42;;
82032;SDS011;71595;52.180;4.512;2023-08-20T08:19:09;10.07;;;1.80;;
82032;SDS011;71595;52.180;4.512;2023-08-20T08:21:35;5.80;;;1.60;;
82032;SDS011;71595;52.180;4.512;2023-08-20T08:24:00;6.38;;;1.40;;
82032;SDS011;71595;52.180;4.512;2023-08-20T08:26:26;5.78;;;1.58;;
82032;SDS011;71595;52.180;4.512;2023-08-20T08:28:51;8.15;;;1.60;;
82032;SDS011;71595;52.180;4.512;2023-08-20T08:31:16;5.35;;;1.80;;
82032;SDS011;71595;52.180;4.512;2023-08-20T08:33:42;7.30;;;2.08;;
82032;SDS011;71595;52.180;4.512;2023-08-20T08:36:07;10.43;;;2.28;;
82032;SDS011;71595;52.180;4.512;2023-08-20T08:38:32;9.55;;;2.20;;
82032;SDS011;71595;52.180;4.512;2023-08-20T08:40:58;7.60;;;1.90;;
82032;SDS011;71595;52.180;4.512;2023-08-20T08:43:25;9.15;;;1.48;;
82032;SDS011;71595;52.180;4.512;2023-08-20T08:45:53;7.32;;;1.55;;
82032;SDS011;71595;52.180;4.512;2023-08-20T08:48:20;8.85;;;2.30;;
82032;SDS011;71595;52.180;4.512;2023-08-20T08:50:46;6.70;;;1.30;;
82032;SDS011;71595;52.180;4.512;2023-08-20T08:53:12;6.43;;;1.27;;
82032;SDS011;71595;52.180;4.512;2023-08-20T08:55:38;6.72;;;1.27;;
82032;SDS011;71595;52.180;4.512;2023-08-20T08:58:04;9.75;;;1.75;;
82032;SDS011;71595;52.180;4.512;2023-08-20T09:00:29;7.15;;;1.40;;
82032;SDS011;71595;52.180;4.512;2023-08-20T09:02:57;7.47;;;2.25;;
82032;SDS011;71595;52.180;4.512;2023-08-20T09:05:22;7.20;;;1.50;;
82032;SDS011;71595;52.180;4.512;2023-08-20T09:07:48;6.30;;;1.25;;
82032;SDS011;71595;52.180;4.512;2023-08-20T09:10:21;10.23;;;2.65;;
82032;SDS011;71595;52.180;4.512;2023-08-20T09:12:47;8.98;;;1.63;;
82032;SDS011;71595;52.180;4.512;2023-08-20T09:15:13;4.25;;;1.27;;
82032;SDS011;71595;52.180;4.512;2023-08-20T09:17:40;7.38;;;1.70;;
82032;SDS011;71595;52.180;4.512;2023-08-20T09:20:07;8.25;;;1.60;;
82032;SDS011;71595;52.180;4.512;2023-08-20T09:22:33;7.82;;;1.95;;
82032;SDS011;71595;52.180;4.512;2023-08-20T09:25:00;8.48;;;1.63;;
82032;SDS011;71595;52.180;4.512;2023-08-20T09:27:27;6.90;;;1.30;;
82032;SDS011;71595;52.180;4.512;2023-08-20T09:29:54;9.52;;;1.65;;
82032;SDS011;71595;52.180;4.512;2023-08-20T09:32:23;6.22;;;1.35;;
82032;SDS011;71595;52.180;4.512;2023-08-20T09:34:50;6.72;;;1.60;;
82032;SDS011;71595;52.180;4.512;2023-08-20T09:37:18;4.05;;;1.27;;
82032;SDS011;71595;52.180;4.512;2023-08-20T09:39:44;6.80;;;1.17;;
82032;SDS011;71595;52.180;4.512;2023-08-20T09:42:10;5.05;;;1.38;;
82032;SDS011;71595;52.180;4.512;2023-08-20T09:44:37;6.40;;;1.58;;
82032;SDS011;71595;52.180;4.512;2023-08-20T09:47:10;5.00;;;1.40;;
82032;SDS011;71595;52.180;4.512;2023-08-20T09:52:07;8.40;;;1.40;;
82032;SDS011;71595;52.180;4.512;2023-08-20T10:00:07;5.45;;;1.25;;
82032;SDS011;71595;52.180;4.512;2023-08-20T10:02:37;4.28;;;1.40;;
82032;SDS011;71595;52.180;4.512;2023-08-20T10:05:06;6.50;;;1.35;;
82032;SDS011;71595;52.180;4.512;2023-08-20T10:07:33;6.03;;;1.30;;
82032;SDS011;71595;52.180;4.512;2023-08-20T10:10:03;9.23;;;1.58;;
82032;SDS011;71595;52.180;4.512;2023-08-20T10:12:30;3.85;;;1.23;;
82032;SDS011;71595;52.180;4.512;2023-08-20T10:14:58;4.50;;;1.20;;
82032;SDS011;71595;52.180;4.512;2023-08-20T10:17:24;4.80;;;1.65;;
82032;SDS011;71595;52.180;4.512;2023-08-20T10:19:51;6.30;;;1.58;;
82032;SDS011;71595;52.180;4.512;2023-08-20T10:22:18;6.85;;;1.60;;
82032;SDS011;71595;52.180;4.512;2023-08-20T10:24:47;5.65;;;1.80;;
82032;SDS011;71595;52.180;4.512;2023-08-20T10:27:26;5.30;;;1.45;;
82032;SDS011;71595;52.180;4.512;2023-08-20T10:29:53;7.22;;;1.50;;
82032;SDS011;71595;52.180;4.512;2023-08-20T10:32:20;5.28;;;1.42;;
82032;SDS011;71595;52.180;4.512;2023-08-20T10:34:50;6.95;;;1.30;;
82032;SDS011;71595;52.180;4.512;2023-08-20T10:37:27;3.00;;;1.10;;
82032;SDS011;71595;52.180;4.512;2023-08-20T10:39:56;4.95;;;1.30;;
82032;SDS011;71595;52.180;4.512;2023-08-20T10:42:25;6.57;;;1.38;;
82032;SDS011;71595;52.180;4.512;2023-08-20T10:45:01;6.97;;;1.30;;
82032;SDS011;71595;52.180;4.512;2023-08-20T10:47:43;7.45;;;1.55;;
82032;SDS011;71595;52.180;4.512;2023-08-20T10:50:15;4.55;;;1.13;;
82032;SDS011;71595;52.180;4.512;2023-08-20T10:52:41;6.28;;;1.25;;
82032;SDS011;71595;52.180;4.512;2023-08-20T10:55:13;5.03;;;1.40;;
82032;SDS011;71595;52.180;4.512;2023-08-20T10:57:39;6.03;;;1.42;;
82032;SDS011;71595;52.180;4.512;2023-08-20T11:00:15;8.07;;;1.73;;
82032;SDS011;71595;52.180;4.512;2023-08-20T11:02:40;6.82;;;1.65;;
82032;SDS011;71595;52.180;4.512;2023-08-20T11:05:20;4.32;;;1.35;;
82032;SDS011;71595;52.180;4.512;2023-08-20T11:07:48;9.50;;;1.25;;
82032;SDS011;71595;52.180;4.512;2023-08-20T11:10:17;6.15;;;1.25;;
82032;SDS011;71595;52.180;4.512;2023-08-20T11:12:43;4.68;;;1.08;;
82032;SDS011;71595;52.180;4.512;2023-08-20T11:15:11;4.40;;;0.93;;
82032;SDS011;71595;52.180;4.512;2023-08-20T11:17:43;3.45;;;0.98;;
82032;SDS011;71595;52.180;4.512;2023-08-20T11:20:10;5.45;;;1.00;;
82032;SDS011;71595;52.180;4.512;2023-08-20T11:22:37;4.10;;;1.00;;
82032;SDS011;71595;52.180;4.512;2023-08-20T11:25:04;4.28;;;1.13;;
82032;SDS011;71595;52.180;4.512;2023-08-20T11:27:29;6.32;;;1.92;;
82032;SDS011;71595;52.180;4.512;2023-08-20T11:29:55;3.90;;;1.10;;
82032;SDS011;71595;52.180;4.512;2023-08-20T11:32:26;3.78;;;0.90;;
82032;SDS011;71595;52.180;4.512;2023-08-20T11:34:51;4.18;;;1.00;;
82032;SDS011;71595;52.180;4.512;2023-08-20T11:37:18;3.47;;;0.90;;
82032;SDS011;71595;52.180;4.512;2023-08-20T11:39:47;4.35;;;1.00;;
82032;SDS011;71595;52.180;4.512;2023-08-20T11:42:13;4.50;;;1.10;;
82032;SDS011;71595;52.180;4.512;2023-08-20T11:44:46;3.30;;;1.25;;
82032;SDS011;71595;52.180;4.512;2023-08-20T11:47:15;3.85;;;1.15;;
82032;SDS011;71595;52.180;4.512;2023-08-20T11:49:41;6.38;;;0.93;;
82032;SDS011;71595;52.180;4.512;2023-08-20T11:52:07;6.18;;;1.30;;
82032;SDS011;71595;52.180;4.512;2023-08-20T11:54:32;6.53;;;1.30;;
82032;SDS011;71595;52.180;4.512;2023-08-20T11:57:07;4.18;;;1.45;;
82032;SDS011;71595;52.180;4.512;2023-08-20T11:59:32;4.97;;;1.20;;
82032;SDS011;71595;52.180;4.512;2023-08-20T12:01:59;5.22;;;1.02;;
82032;SDS011;71595;52.180;4.512;2023-08-20T12:04:27;4.85;;;1.23;;
82032;SDS011;71595;52.180;4.512;2023-08-20T12:07:03;3.58;;;0.95;;
82032;SDS011;71595;52.180;4.512;2023-08-20T12:09:30;6.80;;;1.33;;
82032;SDS011;71595;52.180;4.512;2023-08-20T12:11:55;2.83;;;0.90;;
82032;SDS011;71595;52.180;4.512;2023-08-20T12:14:21;4.00;;;1.30;;
82032;SDS011;71595;52.180;4.512;2023-08-20T12:16:47;7.20;;;1.38;;
82032;SDS011;71595;52.180;4.512;2023-08-20T12:19:12;4.18;;;1.20;;
82032;SDS011;71595;52.180;4.512;2023-08-20T12:21:41;5.07;;;1.40;;
82032;SDS011;71595;52.180;4.512;2023-08-20T12:24:09;3.42;;;0.70;;
82032;SDS011;71595;52.180;4.512;2023-08-20T12:26:35;2.38;;;0.82;;
82032;SDS011;71595;52.180;4.512;2023-08-20T12:29:01;4.60;;;1.30;;
82032;SDS011;71595;52.180;4.512;2023-08-20T12:31:27;3.67;;;1.13;;
82032;SDS011;71595;52.180;4.512;2023-08-20T12:33:52;3.05;;;0.80;;
82032;SDS011;71595;52.180;4.512;2023-08-20T12:36:18;4.05;;;1.10;;
82032;SDS011;71595;52.180;4.512;2023-08-20T12:38:43;4.00;;;0.98;;
82032;SDS011;71595;52.180;4.512;2023-08-20T12:41:08;3.83;;;1.63;;
82032;SDS011;71595;52.180;4.512;2023-08-20T12:43:34;2.10;;;0.88;;
82032;SDS011;71595;52.180;4.512;2023-08-20T12:45:59;2.53;;;0.95;;
82032;SDS011;71595;52.180;4.512;2023-08-20T12:48:25;6.80;;;1.60;;
82032;SDS011;71595;52.180;4.512;2023-08-20T12:50:50;5.00;;;2.42;;
82032;SDS011;71595;52.180;4.512;2023-08-20T12:53:16;6.07;;;1.30;;
82032;SDS011;71595;52.180;4.512;2023-08-20T12:55:41;4.03;;;1.27;;
82032;SDS011;71595;52.180;4.512;2023-08-20T12:58:06;4.78;;;1.02;;
82032;SDS011;71595;52.180;4.512;2023-08-20T13:00:32;4.70;;;1.02;;
82032;SDS011;71595;52.180;4.512;2023-08-20T13:02:58;4.80;;;1.20;;
82032;SDS011;71595;52.180;4.512;2023-08-20T13:05:24;5.10;;;1.65;;
82032;SDS011;71595;52.180;4.512;2023-08-20T13:07:50;9.38;;;2.97;;
82032;SDS011;71595;52.180;4.512;2023-08-20T13:10:17;5.15;;;1.60;;
82032;SDS011;71595;52.180;4.512;2023-08-20T13:12:47;4.07;;;1.55;;
82032;SDS011;71595;52.180;4.512;2023-08-20T13:15:15;3.65;;;0.90;;
82032;SDS011;71595;52.180;4.512;2023-08-20T13:17:48;4.97;;;1.30;;
82032;SDS011;71595;52.180;4.512;2023-08-20T13:20:15;6.10;;;1.40;;
82032;SDS011;71595;52.180;4.512;2023-08-20T13:22:45;5.97;;;1.33;;
82032;SDS011;71595;52.180;4.512;2023-08-20T13:25:11;3.42;;;1.50;;
82032;SDS011;71595;52.180;4.512;2023-08-20T13:27:36;5.72;;;1.20;;
82032;SDS011;71595;52.180;4.512;2023-08-20T13:30:02;3.70;;;1.05;;
82032;SDS011;71595;52.180;4.512;2023-08-20T13:32:28;4.50;;;1.30;;
82032;SDS011;71595;52.180;4.512;2023-08-20T13:34:53;3.03;;;0.73;;
82032;SDS011;71595;52.180;4.512;2023-08-20T13:37:18;3.85;;;0.98;;
82032;SDS011;71595;52.180;4.512;2023-08-20T13:39:44;3.25;;;0.85;;
82032;SDS011;71595;52.180;4.512;2023-08-20T13:42:09;4.10;;;0.70;;
82032;SDS011;71595;52.180;4.512;2023-08-20T13:44:34;3.45;;;0.88;;
82032;SDS011;71595;52.180;4.512;2023-08-20T13:47:00;4.32;;;1.00;;
82032;SDS011;71595;52.180;4.512;2023-08-20T13:49:25;4.22;;;1.08;;
82032;SDS011;71595;52.180;4.512;2023-08-20T13:51:51;2.05;;;0.60;;
82032;SDS011;71595;52.180;4.512;2023-08-20T13:54:16;4.72;;;1.00;;
82032;SDS011;71595;52.180;4.512;2023-08-20T13:56:41;4.50;;;0.98;;
82032;SDS011;71595;52.180;4.512;2023-08-20T13:59:09;2.28;;;0.75;;
82032;SDS011;71595;52.180;4.512;2023-08-20T14:01:35;6.50;;;1.10;;
82032;SDS011;71595;52.180;4.512;2023-08-20T14:04:01;2.55;;;0.68;;
82032;SDS011;71595;52.180;4.512;2023-08-20T14:06:27;3.65;;;1.25;;
82032;SDS011;71595;52.180;4.512;2023-08-20T14:08:52;5.90;;;1.05;;
82032;SDS011;71595;52.180;4.512;2023-08-20T14:11:18;3.53;;;0.90;;
82032;SDS011;71595;52.180;4.512;2023-08-20T14:13:43;3.63;;;0.85;;
82032;SDS011;71595;52.180;4.512;2023-08-20T14:16:09;3.25;;;1.00;;
82032;SDS011;71595;52.180;4.512;2023-08-20T14:18:34;3.17;;;1.00;;
82032;SDS011;71595;52.180;4.512;2023-08-20T14:20:59;3.83;;;0.70;;
82032;SDS011;71595;52.180;4.512;2023-08-20T14:23:25;3.42;;;0.77;;
82032;SDS011;71595;52.180;4.512;2023-08-20T14:25:50;2.88;;;0.63;;
82032;SDS011;71595;52.180;4.512;2023-08-20T14:28:15;5.10;;;0.98;;
82032;SDS011;71595;52.180;4.512;2023-08-20T14:30:41;4.50;;;1.00;;
82032;SDS011;71595;52.180;4.512;2023-08-20T14:33:06;4.07;;;1.25;;
82032;SDS011;71595;52.180;4.512;2023-08-20T14:35:32;4.93;;;1.00;;
82032;SDS011;71595;52.180;4.512;2023-08-20T14:37:57;2.75;;;0.75;;
82032;SDS011;71595;52.180;4.512;2023-08-20T14:40:23;3.47;;;0.90;;
82032;SDS011;71595;52.180;4.512;2023-08-20T14:42:49;4.13;;;0.90;;
82032;SDS011;71595;52.180;4.512;2023-08-20T14:45:15;5.75;;;1.10;;
82032;SDS011;71595;52.180;4.512;2023-08-20T14:47:40;3.15;;;0.82;;
82032;SDS011;71595;52.180;4.512;2023-08-20T14:50:06;2.65;;;0.80;;
82032;SDS011;71595;52.180;4.512;2023-08-20T14:52:32;3.35;;;0.93;;
82032;SDS011;71595;52.180;4.512;2023-08-20T14:54:57;4.80;;;0.88;;
82032;SDS011;71595;52.180;4.512;2023-08-20T14:57:23;2.42;;;0.80;;
82032;SDS011;71595;52.180;4.512;2023-08-20T14:59:48;3.72;;;1.10;;